sensor_id;sensor_type;location;lat;lon;timestamp;P1;durP1;ratioP1;P2;durP2;ratioP2
53652;SDS011;39553;52.954;5.932;2023-02-03T00:01:34;7.78;;;1.80;;
53652;SDS011;39553;52.954;5.932;2023-02-03T00:04:01;4.30;;;2.00;;
53652;SDS011;39553;52.954;5.932;2023-02-03T00:06:27;5.63;;;1.60;;
53652;SDS011;39553;52.954;5.932;2023-02-03T00:08:56;3.58;;;1.58;;
53652;SDS011;39553;52.954;5.932;2023-02-03T00:11:23;3.13;;;1.38;;
53652;SDS011;39553;52.954;5.932;2023-02-03T00:13:51;7.07;;;1.60;;
53652;SDS011;39553;52.954;5.932;2023-02-03T00:16:19;9.68;;;2.08;;
53652;SDS011;39553;52.954;5.932;2023-02-03T00:18:45;4.85;;;1.50;;
53652;SDS011;39553;52.954;5.932;2023-02-03T00:21:11;2.85;;;1.17;;
53652;SDS011;39553;52.954;5.932;2023-02-03T00:23:39;7.57;;;1.65;;
53652;SDS011;39553;52.954;5.932;2023-02-03T00:26:09;5.65;;;1.45;;
53652;SDS011;39553;52.954;5.932;2023-02-03T00:28:57;5.93;;;1.80;;
53652;SDS011;39553;52.954;5.932;2023-02-03T00:31:24;14.75;;;2.28;;
53652;SDS011;39553;52.954;5.932;2023-02-03T00:33:53;10.40;;;1.85;;
53652;SDS011;39553;52.954;5.932;2023-02-03T00:36:20;8.73;;;2.15;;
53652;SDS011;39553;52.954;5.932;2023-02-03T00:38:49;6.30;;;2.30;;
53652;SDS011;39553;52.954;5.932;2023-02-03T00:41:16;7.55;;;1.73;;
53652;SDS011;39553;52.954;5.932;2023-02-03T00:43:42;13.38;;;2.80;;
53652;SDS011;39553;52.954;5.932;2023-02-03T00:46:08;9.10;;;2.40;;
53652;SDS011;39553;52.954;5.932;2023-02-03T00:48:33;8.07;;;1.83;;
53652;SDS011;39553;52.954;5.932;2023-02-03T00:50:59;4.10;;;1.80;;
53652;SDS011;39553;52.954;5.932;2023-02-03T00:53:25;8.00;;;2.45;;
53652;SDS011;39553;52.954;5.932;2023-02-03T00:55:53;9.35;;;1.95;;
53652;SDS011;39553;52.954;5.932;2023-02-03T00:58:19;8.05;;;2.42;;
53652;SDS011;39553;52.954;5.932;2023-02-03T01:00:45;7.47;;;1.80;;
53652;SDS011;39553;52.954;5.932;2023-02-03T01:03:11;8.57;;;3.42;;
53652;SDS011;39553;52.954;5.932;2023-02-03T01:05:37;10.45;;;1.90;;
53652;SDS011;39553;52.954;5.932;2023-02-03T01:08:03;6.28;;;2.05;;
53652;SDS011;39553;52.954;5.932;2023-02-03T01:10:29;9.43;;;2.08;;
53652;SDS011;39553;52.954;5.932;2023-02-03T01:12:55;9.57;;;1.90;;
53652;SDS011;39553;52.954;5.932;2023-02-03T01:15:21;3.75;;;1.23;;
53652;SDS011;39553;52.954;5.932;2023-02-03T01:17:47;6.70;;;1.83;;
53652;SDS011;39553;52.954;5.932;2023-02-03T01:20:12;5.55;;;2.10;;
53652;SDS011;39553;52.954;5.932;2023-02-03T01:22:40;5.43;;;1.83;;
53652;SDS011;39553;52.954;5.932;2023-02-03T01:25:07;3.10;;;1.60;;
53652;SDS011;39553;52.954;5.932;2023-02-03T01:27:33;8.70;;;1.55;;
53652;SDS011;39553;52.954;5.932;2023-02-03T01:29:59;11.63;;;1.80;;
53652;SDS011;39553;52.954;5.932;2023-02-03T01:32:25;5.38;;;1.98;;
53652;SDS011;39553;52.954;5.932;2023-02-03T01:34:51;4.60;;;1.75;;
53652;SDS011;39553;52.954;5.932;2023-02-03T01:37:20;4.22;;;1.95;;
53652;SDS011;39553;52.954;5.932;2023-02-03T01:39:46;4.20;;;1.73;;
53652;SDS011;39553;52.954;5.932;2023-02-03T01:42:12;4.53;;;2.03;;
53652;SDS011;39553;52.954;5.932;2023-02-03T01:44:46;4.68;;;1.38;;
53652;SDS011;39553;52.954;5.932;2023-02-03T01:50:17;6.07;;;2.03;;
53652;SDS011;39553;52.954;5.932;2023-02-03T01:53:02;8.30;;;1.67;;
53652;SDS011;39553;52.954;5.932;2023-02-03T01:55:35;7.15;;;1.67;;
53652;SDS011;39553;52.954;5.932;2023-02-03T02:00:33;6.88;;;2.03;;
53652;SDS011;39553;52.954;5.932;2023-02-03T02:02:59;5.28;;;1.60;;
53652;SDS011;39553;52.954;5.932;2023-02-03T02:07:59;3.75;;;1.70;;
53652;SDS011;39553;52.954;5.932;2023-02-03T02:10:27;2.50;;;1.17;;
53652;SDS011;39553;52.954;5.932;2023-02-03T02:12:54;4.47;;;1.42;;
53652;SDS011;39553;52.954;5.932;2023-02-03T02:15:22;10.57;;;1.88;;
53652;SDS011;39553;52.954;5.932;2023-02-03T02:29:14;8.98;;;1.75;;
53652;SDS011;39553;52.954;5.932;2023-02-03T02:34:46;11.55;;;3.15;;
53652;SDS011;39553;52.954;5.932;2023-02-03T02:43:03;5.40;;;1.92;;
53652;SDS011;39553;52.954;5.932;2023-02-03T02:45:40;8.45;;;2.00;;
53652;SDS011;39553;52.954;5.932;2023-02-03T02:48:31;4.82;;;1.75;;
53652;SDS011;39553;52.954;5.932;2023-02-03T02:51:05;7.88;;;2.47;;
53652;SDS011;39553;52.954;5.932;2023-02-03T02:53:35;12.65;;;2.35;;
53652;SDS011;39553;52.954;5.932;2023-02-03T02:58:35;7.47;;;1.83;;
53652;SDS011;39553;52.954;5.932;2023-02-03T03:01:03;8.00;;;1.95;;
53652;SDS011;39553;52.954;5.932;2023-02-03T03:03:32;9.20;;;2.10;;
53652;SDS011;39553;52.954;5.932;2023-02-03T03:05:59;5.88;;;2.25;;
53652;SDS011;39553;52.954;5.932;2023-02-03T03:11:27;7.60;;;1.98;;
53652;SDS011;39553;52.954;5.932;2023-02-03T03:14:00;11.73;;;2.42;;
53652;SDS011;39553;52.954;5.932;2023-02-03T03:16:28;12.30;;;3.22;;
53652;SDS011;39553;52.954;5.932;2023-02-03T03:19:01;8.80;;;2.60;;
53652;SDS011;39553;52.954;5.932;2023-02-03T03:21:32;4.30;;;2.30;;
53652;SDS011;39553;52.954;5.932;2023-02-03T03:24:07;6.47;;;2.38;;
53652;SDS011;39553;52.954;5.932;2023-02-03T03:29:16;6.70;;;2.17;;
53652;SDS011;39553;52.954;5.932;2023-02-03T03:34:14;15.57;;;3.10;;
53652;SDS011;39553;52.954;5.932;2023-02-03T03:37:00;8.73;;;2.65;;
53652;SDS011;39553;52.954;5.932;2023-02-03T03:42:19;5.50;;;1.58;;
53652;SDS011;39553;52.954;5.932;2023-02-03T03:45:10;11.13;;;2.40;;
53652;SDS011;39553;52.954;5.932;2023-02-03T03:47:52;6.78;;;2.60;;
53652;SDS011;39553;52.954;5.932;2023-02-03T03:50:36;11.70;;;2.33;;
53652;SDS011;39553;52.954;5.932;2023-02-03T03:53:07;13.75;;;2.35;;
53652;SDS011;39553;52.954;5.932;2023-02-03T03:55:36;8.48;;;2.42;;
53652;SDS011;39553;52.954;5.932;2023-02-03T03:58:05;21.17;;;3.33;;
53652;SDS011;39553;52.954;5.932;2023-02-03T04:00:34;9.27;;;2.10;;
53652;SDS011;39553;52.954;5.932;2023-02-03T04:03:14;7.10;;;1.70;;
53652;SDS011;39553;52.954;5.932;2023-02-03T04:05:41;10.27;;;2.97;;
53652;SDS011;39553;52.954;5.932;2023-02-03T04:08:08;4.70;;;1.75;;
53652;SDS011;39553;52.954;5.932;2023-02-03T04:10:35;17.30;;;2.97;;
53652;SDS011;39553;52.954;5.932;2023-02-03T04:13:03;8.00;;;2.13;;
53652;SDS011;39553;52.954;5.932;2023-02-03T04:15:31;7.20;;;2.13;;
53652;SDS011;39553;52.954;5.932;2023-02-03T04:17:58;10.60;;;1.92;;
53652;SDS011;39553;52.954;5.932;2023-02-03T04:20:25;6.55;;;2.25;;
53652;SDS011;39553;52.954;5.932;2023-02-03T04:22:52;6.97;;;1.98;;
53652;SDS011;39553;52.954;5.932;2023-02-03T04:25:18;9.48;;;2.03;;
53652;SDS011;39553;52.954;5.932;2023-02-03T04:27:44;10.30;;;1.92;;
53652;SDS011;39553;52.954;5.932;2023-02-03T04:30:10;7.18;;;2.28;;
53652;SDS011;39553;52.954;5.932;2023-02-03T04:32:36;8.68;;;2.15;;
53652;SDS011;39553;52.954;5.932;2023-02-03T04:35:03;8.98;;;2.22;;
53652;SDS011;39553;52.954;5.932;2023-02-03T04:37:30;8.88;;;2.17;;
53652;SDS011;39553;52.954;5.932;2023-02-03T04:39:56;12.90;;;1.60;;
53652;SDS011;39553;52.954;5.932;2023-02-03T04:42:22;9.10;;;2.08;;
53652;SDS011;39553;52.954;5.932;2023-02-03T04:44:48;7.47;;;1.92;;
53652;SDS011;39553;52.954;5.932;2023-02-03T04:47:14;7.10;;;1.95;;
53652;SDS011;39553;52.954;5.932;2023-02-03T04:49:40;13.15;;;3.60;;
53652;SDS011;39553;52.954;5.932;2023-02-03T04:52:06;9.10;;;2.20;;
53652;SDS011;39553;52.954;5.932;2023-02-03T04:54:32;10.23;;;2.03;;
53652;SDS011;39553;52.954;5.932;2023-02-03T04:56:58;8.88;;;2.63;;
53652;SDS011;39553;52.954;5.932;2023-02-03T04:59:25;6.78;;;2.33;;
53652;SDS011;39553;52.954;5.932;2023-02-03T05:01:51;5.10;;;1.50;;
53652;SDS011;39553;52.954;5.932;2023-02-03T05:04:17;6.97;;;1.52;;
53652;SDS011;39553;52.954;5.932;2023-02-03T05:06:43;10.63;;;3.47;;
53652;SDS011;39553;52.954;5.932;2023-02-03T05:09:08;10.02;;;2.25;;
53652;SDS011;39553;52.954;5.932;2023-02-03T05:11:34;9.40;;;2.13;;
53652;SDS011;39553;52.954;5.932;2023-02-03T05:14:00;7.22;;;1.88;;
53652;SDS011;39553;52.954;5.932;2023-02-03T05:16:26;6.68;;;1.83;;
53652;SDS011;39553;52.954;5.932;2023-02-03T05:18:51;2.28;;;1.10;;
53652;SDS011;39553;52.954;5.932;2023-02-03T05:21:18;12.10;;;2.20;;
53652;SDS011;39553;52.954;5.932;2023-02-03T05:23:43;7.55;;;2.05;;
53652;SDS011;39553;52.954;5.932;2023-02-03T05:26:10;10.95;;;2.92;;
53652;SDS011;39553;52.954;5.932;2023-02-03T05:28:36;5.10;;;1.90;;
53652;SDS011;39553;52.954;5.932;2023-02-03T05:31:02;11.55;;;2.05;;
53652;SDS011;39553;52.954;5.932;2023-02-03T05:33:28;9.50;;;2.28;;
53652;SDS011;39553;52.954;5.932;2023-02-03T05:35:54;6.22;;;2.38;;
53652;SDS011;39553;52.954;5.932;2023-02-03T05:38:20;7.00;;;2.45;;
53652;SDS011;39553;52.954;5.932;2023-02-03T05:40:50;8.63;;;2.40;;
53652;SDS011;39553;52.954;5.932;2023-02-03T05:43:34;15.05;;;4.10;;
53652;SDS011;39553;52.954;5.932;2023-02-03T05:46:03;7.57;;;2.35;;
53652;SDS011;39553;52.954;5.932;2023-02-03T05:48:30;7.10;;;2.20;;
53652;SDS011;39553;52.954;5.932;2023-02-03T05:50:59;8.77;;;2.40;;
53652;SDS011;39553;52.954;5.932;2023-02-03T05:53:25;4.05;;;1.38;;
53652;SDS011;39553;52.954;5.932;2023-02-03T05:55:51;10.90;;;2.75;;
53652;SDS011;39553;52.954;5.932;2023-02-03T05:58:17;9.15;;;2.75;;
53652;SDS011;39553;52.954;5.932;2023-02-03T06:00:43;8.48;;;1.67;;
53652;SDS011;39553;52.954;5.932;2023-02-03T06:03:09;11.77;;;2.45;;
53652;SDS011;39553;52.954;5.932;2023-02-03T06:05:36;5.90;;;2.17;;
53652;SDS011;39553;52.954;5.932;2023-02-03T06:08:05;6.90;;;1.92;;
53652;SDS011;39553;52.954;5.932;2023-02-03T06:10:31;6.07;;;1.80;;
53652;SDS011;39553;52.954;5.932;2023-02-03T06:12:58;9.07;;;2.78;;
53652;SDS011;39553;52.954;5.932;2023-02-03T06:15:24;11.75;;;2.25;;
53652;SDS011;39553;52.954;5.932;2023-02-03T06:17:51;14.88;;;2.70;;
53652;SDS011;39553;52.954;5.932;2023-02-03T06:20:18;6.90;;;2.20;;
53652;SDS011;39553;52.954;5.932;2023-02-03T06:22:45;13.52;;;2.78;;
53652;SDS011;39553;52.954;5.932;2023-02-03T06:25:11;13.48;;;3.03;;
53652;SDS011;39553;52.954;5.932;2023-02-03T06:27:38;7.75;;;2.50;;
53652;SDS011;39553;52.954;5.932;2023-02-03T06:30:05;11.25;;;2.50;;
53652;SDS011;39553;52.954;5.932;2023-02-03T06:32:31;9.05;;;2.63;;
53652;SDS011;39553;52.954;5.932;2023-02-03T06:34:57;9.98;;;2.00;;
53652;SDS011;39553;52.954;5.932;2023-02-03T06:37:23;14.70;;;3.60;;
53652;SDS011;39553;52.954;5.932;2023-02-03T06:39:49;9.93;;;2.55;;
53652;SDS011;39553;52.954;5.932;2023-02-03T06:42:15;10.80;;;2.67;;
53652;SDS011;39553;52.954;5.932;2023-02-03T06:44:41;4.57;;;2.00;;
53652;SDS011;39553;52.954;5.932;2023-02-03T06:47:08;12.88;;;2.33;;
53652;SDS011;39553;52.954;5.932;2023-02-03T06:49:34;6.97;;;2.30;;
53652;SDS011;39553;52.954;5.932;2023-02-03T06:51:59;9.23;;;2.03;;
53652;SDS011;39553;52.954;5.932;2023-02-03T06:54:25;8.85;;;1.92;;
53652;SDS011;39553;52.954;5.932;2023-02-03T06:56:51;12.73;;;3.13;;
53652;SDS011;39553;52.954;5.932;2023-02-03T06:59:17;10.07;;;2.40;;
53652;SDS011;39553;52.954;5.932;2023-02-03T07:01:44;14.27;;;2.80;;
53652;SDS011;39553;52.954;5.932;2023-02-03T07:04:09;8.70;;;2.05;;
53652;SDS011;39553;52.954;5.932;2023-02-03T07:06:35;9.45;;;2.47;;
53652;SDS011;39553;52.954;5.932;2023-02-03T07:09:02;10.20;;;2.22;;
53652;SDS011;39553;52.954;5.932;2023-02-03T07:11:29;11.68;;;2.67;;
53652;SDS011;39553;52.954;5.932;2023-02-03T07:13:56;10.88;;;2.65;;
53652;SDS011;39553;52.954;5.932;2023-02-03T07:16:22;9.50;;;2.40;;
53652;SDS011;39553;52.954;5.932;2023-02-03T07:18:48;6.93;;;2.10;;
53652;SDS011;39553;52.954;5.932;2023-02-03T07:21:14;15.93;;;3.00;;
53652;SDS011;39553;52.954;5.932;2023-02-03T07:23:40;13.45;;;2.80;;
53652;SDS011;39553;52.954;5.932;2023-02-03T07:26:07;10.63;;;2.60;;
53652;SDS011;39553;52.954;5.932;2023-02-03T07:28:34;7.45;;;2.92;;
53652;SDS011;39553;52.954;5.932;2023-02-03T07:31:00;10.32;;;3.33;;
53652;SDS011;39553;52.954;5.932;2023-02-03T07:33:34;9.55;;;2.75;;
53652;SDS011;39553;52.954;5.932;2023-02-03T07:36:00;12.40;;;3.03;;
53652;SDS011;39553;52.954;5.932;2023-02-03T07:38:27;13.40;;;2.92;;
53652;SDS011;39553;52.954;5.932;2023-02-03T07:40:53;13.45;;;2.88;;
53652;SDS011;39553;52.954;5.932;2023-02-03T07:43:19;7.32;;;2.50;;
53652;SDS011;39553;52.954;5.932;2023-02-03T07:45:45;14.90;;;3.17;;
53652;SDS011;39553;52.954;5.932;2023-02-03T07:48:11;9.35;;;3.60;;
53652;SDS011;39553;52.954;5.932;2023-02-03T07:50:37;13.75;;;3.72;;
53652;SDS011;39553;52.954;5.932;2023-02-03T07:53:04;9.55;;;2.33;;
53652;SDS011;39553;52.954;5.932;2023-02-03T07:55:31;10.43;;;2.83;;
53652;SDS011;39553;52.954;5.932;2023-02-03T07:57:58;11.02;;;2.92;;
53652;SDS011;39553;52.954;5.932;2023-02-03T08:00:24;9.68;;;2.55;;
53652;SDS011;39553;52.954;5.932;2023-02-03T08:02:50;8.00;;;2.67;;
53652;SDS011;39553;52.954;5.932;2023-02-03T08:05:17;9.73;;;2.45;;
53652;SDS011;39553;52.954;5.932;2023-02-03T08:07:43;11.73;;;3.38;;
53652;SDS011;39553;52.954;5.932;2023-02-03T08:10:10;16.50;;;3.40;;
53652;SDS011;39553;52.954;5.932;2023-02-03T08:12:37;20.55;;;3.67;;
53652;SDS011;39553;52.954;5.932;2023-02-03T08:15:03;14.15;;;3.17;;
53652;SDS011;39553;52.954;5.932;2023-02-03T08:17:29;8.13;;;2.97;;
53652;SDS011;39553;52.954;5.932;2023-02-03T08:19:57;22.13;;;4.13;;
53652;SDS011;39553;52.954;5.932;2023-02-03T08:22:23;23.38;;;3.60;;
53652;SDS011;39553;52.954;5.932;2023-02-03T08:24:48;17.83;;;4.18;;
53652;SDS011;39553;52.954;5.932;2023-02-03T08:27:17;16.85;;;3.88;;
53652;SDS011;39553;52.954;5.932;2023-02-03T08:29:44;11.82;;;3.33;;
53652;SDS011;39553;52.954;5.932;2023-02-03T08:32:11;8.93;;;2.72;;
53652;SDS011;39553;52.954;5.932;2023-02-03T08:34:39;7.22;;;3.08;;
53652;SDS011;39553;52.954;5.932;2023-02-03T08:37:05;13.43;;;3.60;;
53652;SDS011;39553;52.954;5.932;2023-02-03T08:39:32;10.98;;;3.33;;
53652;SDS011;39553;52.954;5.932;2023-02-03T08:41:59;10.68;;;2.60;;
53652;SDS011;39553;52.954;5.932;2023-02-03T08:44:25;8.75;;;2.17;;
53652;SDS011;39553;52.954;5.932;2023-02-03T08:46:51;10.35;;;3.17;;
53652;SDS011;39553;52.954;5.932;2023-02-03T08:49:18;6.78;;;2.80;;
53652;SDS011;39553;52.954;5.932;2023-02-03T08:51:45;10.50;;;2.88;;
53652;SDS011;39553;52.954;5.932;2023-02-03T08:54:12;12.80;;;2.63;;
53652;SDS011;39553;52.954;5.932;2023-02-03T08:56:38;14.93;;;3.78;;
53652;SDS011;39553;52.954;5.932;2023-02-03T08:59:04;13.70;;;3.42;;
53652;SDS011;39553;52.954;5.932;2023-02-03T09:01:30;13.23;;;3.28;;
53652;SDS011;39553;52.954;5.932;2023-02-03T09:03:55;15.65;;;3.45;;
53652;SDS011;39553;52.954;5.932;2023-02-03T09:06:22;20.77;;;3.75;;
53652;SDS011;39553;52.954;5.932;2023-02-03T09:08:48;16.25;;;4.15;;
53652;SDS011;39553;52.954;5.932;2023-02-03T09:11:16;13.48;;;3.88;;
53652;SDS011;39553;52.954;5.932;2023-02-03T09:13:42;10.18;;;2.65;;
53652;SDS011;39553;52.954;5.932;2023-02-03T09:16:10;11.90;;;2.60;;
53652;SDS011;39553;52.954;5.932;2023-02-03T09:18:37;18.52;;;3.72;;
53652;SDS011;39553;52.954;5.932;2023-02-03T09:21:04;13.85;;;4.03;;
53652;SDS011;39553;52.954;5.932;2023-02-03T09:23:32;14.70;;;4.88;;
53652;SDS011;39553;52.954;5.932;2023-02-03T09:26:02;20.42;;;3.72;;
53652;SDS011;39553;52.954;5.932;2023-02-03T09:28:32;17.95;;;3.67;;
53652;SDS011;39553;52.954;5.932;2023-02-03T09:31:01;18.95;;;3.70;;
53652;SDS011;39553;52.954;5.932;2023-02-03T09:33:28;10.60;;;3.80;;
53652;SDS011;39553;52.954;5.932;2023-02-03T09:35:54;23.70;;;4.38;;
53652;SDS011;39553;52.954;5.932;2023-02-03T09:38:22;15.90;;;3.47;;
53652;SDS011;39553;52.954;5.932;2023-02-03T09:40:52;11.63;;;3.17;;
53652;SDS011;39553;52.954;5.932;2023-02-03T09:43:36;19.05;;;4.13;;
53652;SDS011;39553;52.954;5.932;2023-02-03T09:48:50;12.73;;;3.88;;
53652;SDS011;39553;52.954;5.932;2023-02-03T09:51:21;14.82;;;3.88;;
53652;SDS011;39553;52.954;5.932;2023-02-03T09:54:01;19.50;;;3.80;;
53652;SDS011;39553;52.954;5.932;2023-02-03T09:56:37;12.02;;;3.72;;
53652;SDS011;39553;52.954;5.932;2023-02-03T09:59:04;21.40;;;4.57;;
53652;SDS011;39553;52.954;5.932;2023-02-03T10:01:33;10.02;;;3.25;;
53652;SDS011;39553;52.954;5.932;2023-02-03T10:06:52;12.88;;;3.83;;
53652;SDS011;39553;52.954;5.932;2023-02-03T10:17:53;12.88;;;3.83;;
53652;SDS011;39553;52.954;5.932;2023-02-03T10:20:28;20.35;;;3.78;;
53652;SDS011;39553;52.954;5.932;2023-02-03T10:23:08;15.10;;;3.85;;
53652;SDS011;39553;52.954;5.932;2023-02-03T10:25:48;17.33;;;4.63;;
53652;SDS011;39553;52.954;5.932;2023-02-03T10:28:21;17.77;;;4.38;;
53652;SDS011;39553;52.954;5.932;2023-02-03T10:30:55;22.05;;;4.32;;
53652;SDS011;39553;52.954;5.932;2023-02-03T10:33:29;21.48;;;4.85;;
53652;SDS011;39553;52.954;5.932;2023-02-03T10:41:31;17.05;;;3.97;;
53652;SDS011;39553;52.954;5.932;2023-02-03T10:43:57;23.25;;;4.65;;
53652;SDS011;39553;52.954;5.932;2023-02-03T10:46:30;17.13;;;3.95;;
53652;SDS011;39553;52.954;5.932;2023-02-03T10:49:03;17.40;;;3.80;;
53652;SDS011;39553;52.954;5.932;2023-02-03T10:51:31;20.83;;;3.90;;
53652;SDS011;39553;52.954;5.932;2023-02-03T10:54:01;23.50;;;4.50;;
53652;SDS011;39553;52.954;5.932;2023-02-03T10:56:31;14.73;;;4.30;;
53652;SDS011;39553;52.954;5.932;2023-02-03T10:59:01;24.05;;;5.53;;
53652;SDS011;39553;52.954;5.932;2023-02-03T11:01:41;17.42;;;3.85;;
53652;SDS011;39553;52.954;5.932;2023-02-03T11:04:24;17.73;;;4.13;;
53652;SDS011;39553;52.954;5.932;2023-02-03T11:07:22;18.75;;;4.72;;
53652;SDS011;39553;52.954;5.932;2023-02-03T11:09:50;27.52;;;4.57;;
53652;SDS011;39553;52.954;5.932;2023-02-03T11:12:19;23.20;;;4.65;;
53652;SDS011;39553;52.954;5.932;2023-02-03T11:14:46;19.40;;;4.35;;
53652;SDS011;39553;52.954;5.932;2023-02-03T11:17:25;20.10;;;5.70;;
53652;SDS011;39553;52.954;5.932;2023-02-03T11:19:54;26.88;;;5.07;;
53652;SDS011;39553;52.954;5.932;2023-02-03T11:22:30;21.45;;;5.65;;
53652;SDS011;39553;52.954;5.932;2023-02-03T11:25:02;25.08;;;5.72;;
53652;SDS011;39553;52.954;5.932;2023-02-03T11:27:40;27.95;;;5.35;;
53652;SDS011;39553;52.954;5.932;2023-02-03T11:30:09;20.88;;;4.38;;
53652;SDS011;39553;52.954;5.932;2023-02-03T11:32:46;31.08;;;5.97;;
53652;SDS011;39553;52.954;5.932;2023-02-03T11:35:13;27.17;;;5.68;;
53652;SDS011;39553;52.954;5.932;2023-02-03T11:37:51;23.35;;;5.88;;
53652;SDS011;39553;52.954;5.932;2023-02-03T11:47:43;24.90;;;5.38;;
53652;SDS011;39553;52.954;5.932;2023-02-03T11:52:57;34.17;;;6.88;;
53652;SDS011;39553;52.954;5.932;2023-02-03T12:01:04;19.85;;;5.10;;
53652;SDS011;39553;52.954;5.932;2023-02-03T12:11:27;26.85;;;5.50;;
53652;SDS011;39553;52.954;5.932;2023-02-03T12:14:09;14.93;;;5.27;;
53652;SDS011;39553;52.954;5.932;2023-02-03T12:25:08;18.58;;;5.55;;
53652;SDS011;39553;52.954;5.932;2023-02-03T12:27:49;21.15;;;5.45;;
53652;SDS011;39553;52.954;5.932;2023-02-03T12:30:38;22.92;;;7.53;;
53652;SDS011;39553;52.954;5.932;2023-02-03T12:33:16;26.10;;;6.20;;
53652;SDS011;39553;52.954;5.932;2023-02-03T12:38:29;28.27;;;6.53;;
53652;SDS011;39553;52.954;5.932;2023-02-03T12:41:03;32.67;;;5.65;;
53652;SDS011;39553;52.954;5.932;2023-02-03T12:43:45;33.22;;;6.68;;
53652;SDS011;39553;52.954;5.932;2023-02-03T12:48:59;33.33;;;8.45;;
53652;SDS011;39553;52.954;5.932;2023-02-03T12:53:58;24.88;;;5.40;;
53652;SDS011;39553;52.954;5.932;2023-02-03T12:56:33;32.72;;;6.55;;
53652;SDS011;39553;52.954;5.932;2023-02-03T12:59:07;40.67;;;8.60;;
53652;SDS011;39553;52.954;5.932;2023-02-03T13:01:43;41.25;;;7.78;;
53652;SDS011;39553;52.954;5.932;2023-02-03T13:06:49;25.45;;;5.55;;
53652;SDS011;39553;52.954;5.932;2023-02-03T13:12:04;18.30;;;5.47;;
53652;SDS011;39553;52.954;5.932;2023-02-03T13:14:37;32.60;;;7.38;;
53652;SDS011;39553;52.954;5.932;2023-02-03T13:17:15;44.28;;;6.80;;
53652;SDS011;39553;52.954;5.932;2023-02-03T13:20:14;36.63;;;6.30;;
53652;SDS011;39553;52.954;5.932;2023-02-03T13:22:46;28.33;;;5.28;;
53652;SDS011;39553;52.954;5.932;2023-02-03T13:41:28;21.60;;;4.13;;
53652;SDS011;39553;52.954;5.932;2023-02-03T13:44:02;25.33;;;6.55;;
53652;SDS011;39553;52.954;5.932;2023-02-03T13:46:30;26.17;;;5.57;;
53652;SDS011;39553;52.954;5.932;2023-02-03T13:48:59;23.90;;;6.63;;
53652;SDS011;39553;52.954;5.932;2023-02-03T13:51:32;21.90;;;5.25;;
53652;SDS011;39553;52.954;5.932;2023-02-03T13:54:12;34.17;;;5.72;;
53652;SDS011;39553;52.954;5.932;2023-02-03T13:57:16;26.38;;;6.75;;
53652;SDS011;39553;52.954;5.932;2023-02-03T13:59:46;28.98;;;5.03;;
53652;SDS011;39553;52.954;5.932;2023-02-03T14:12:38;32.78;;;7.07;;
53652;SDS011;39553;52.954;5.932;2023-02-03T14:17:55;27.63;;;5.82;;
53652;SDS011;39553;52.954;5.932;2023-02-03T14:22:52;26.92;;;5.47;;
53652;SDS011;39553;52.954;5.932;2023-02-03T14:25:19;41.90;;;8.52;;
53652;SDS011;39553;52.954;5.932;2023-02-03T14:27:46;33.17;;;6.18;;
53652;SDS011;39553;52.954;5.932;2023-02-03T14:30:22;22.45;;;5.75;;
53652;SDS011;39553;52.954;5.932;2023-02-03T14:35:16;28.13;;;5.63;;
53652;SDS011;39553;52.954;5.932;2023-02-03T14:38:01;34.90;;;6.43;;
53652;SDS011;39553;52.954;5.932;2023-02-03T14:40:42;26.15;;;5.20;;
53652;SDS011;39553;52.954;5.932;2023-02-03T14:43:33;29.75;;;5.50;;
53652;SDS011;39553;52.954;5.932;2023-02-03T14:59:57;37.78;;;5.55;;
53652;SDS011;39553;52.954;5.932;2023-02-03T15:02:27;31.85;;;5.78;;
53652;SDS011;39553;52.954;5.932;2023-02-03T15:10:14;25.73;;;6.60;;
53652;SDS011;39553;52.954;5.932;2023-02-03T15:12:46;35.28;;;6.38;;
53652;SDS011;39553;52.954;5.932;2023-02-03T15:15:18;17.42;;;4.32;;
53652;SDS011;39553;52.954;5.932;2023-02-03T15:17:47;29.05;;;6.70;;
53652;SDS011;39553;52.954;5.932;2023-02-03T15:20:34;22.90;;;5.07;;
53652;SDS011;39553;52.954;5.932;2023-02-03T15:23:27;34.88;;;5.32;;
53652;SDS011;39553;52.954;5.932;2023-02-03T15:25:55;28.70;;;5.38;;
53652;SDS011;39553;52.954;5.932;2023-02-03T15:28:25;31.92;;;5.10;;
53652;SDS011;39553;52.954;5.932;2023-02-03T15:31:03;26.15;;;6.38;;
53652;SDS011;39553;52.954;5.932;2023-02-03T15:33:33;23.45;;;4.80;;
53652;SDS011;39553;52.954;5.932;2023-02-03T15:36:04;33.95;;;6.45;;
53652;SDS011;39553;52.954;5.932;2023-02-03T15:38:37;28.88;;;5.65;;
53652;SDS011;39553;52.954;5.932;2023-02-03T15:41:07;30.42;;;5.28;;
53652;SDS011;39553;52.954;5.932;2023-02-03T15:43:43;30.23;;;7.18;;
53652;SDS011;39553;52.954;5.932;2023-02-03T15:48:48;31.95;;;6.80;;
53652;SDS011;39553;52.954;5.932;2023-02-03T15:54:06;25.10;;;5.75;;
53652;SDS011;39553;52.954;5.932;2023-02-03T15:56:46;32.83;;;6.65;;
53652;SDS011;39553;52.954;5.932;2023-02-03T16:01:49;23.77;;;4.85;;
53652;SDS011;39553;52.954;5.932;2023-02-03T16:04:17;22.67;;;5.60;;
53652;SDS011;39553;52.954;5.932;2023-02-03T16:06:47;29.20;;;6.32;;
53652;SDS011;39553;52.954;5.932;2023-02-03T16:09:38;30.33;;;4.80;;
53652;SDS011;39553;52.954;5.932;2023-02-03T16:14:52;26.02;;;6.13;;
53652;SDS011;39553;52.954;5.932;2023-02-03T16:17:34;39.20;;;7.25;;
53652;SDS011;39553;52.954;5.932;2023-02-03T16:22:44;25.15;;;7.03;;
53652;SDS011;39553;52.954;5.932;2023-02-03T16:25:27;22.08;;;5.43;;
53652;SDS011;39553;52.954;5.932;2023-02-03T16:27:55;26.92;;;6.43;;
53652;SDS011;39553;52.954;5.932;2023-02-03T16:30:56;21.83;;;6.47;;
53652;SDS011;39553;52.954;5.932;2023-02-03T16:33:46;40.97;;;7.75;;
53652;SDS011;39553;52.954;5.932;2023-02-03T16:36:33;24.90;;;6.63;;
53652;SDS011;39553;52.954;5.932;2023-02-03T16:39:24;33.17;;;6.55;;
53652;SDS011;39553;52.954;5.932;2023-02-03T16:42:14;32.25;;;7.65;;
53652;SDS011;39553;52.954;5.932;2023-02-03T16:44:59;20.90;;;6.53;;
53652;SDS011;39553;52.954;5.932;2023-02-03T16:47:44;21.90;;;5.20;;
53652;SDS011;39553;52.954;5.932;2023-02-03T16:50:29;31.15;;;6.00;;
53652;SDS011;39553;52.954;5.932;2023-02-03T16:53:15;26.70;;;5.18;;
53652;SDS011;39553;52.954;5.932;2023-02-03T16:55:43;26.10;;;7.03;;
53652;SDS011;39553;52.954;5.932;2023-02-03T16:58:10;36.45;;;7.40;;
53652;SDS011;39553;52.954;5.932;2023-02-03T17:00:40;40.17;;;10.43;;
53652;SDS011;39553;52.954;5.932;2023-02-03T17:03:09;35.22;;;7.47;;
53652;SDS011;39553;52.954;5.932;2023-02-03T17:05:40;27.05;;;6.10;;
53652;SDS011;39553;52.954;5.932;2023-02-03T17:08:07;34.22;;;8.05;;
53652;SDS011;39553;52.954;5.932;2023-02-03T17:10:34;26.58;;;6.57;;
53652;SDS011;39553;52.954;5.932;2023-02-03T17:13:01;34.42;;;6.32;;
53652;SDS011;39553;52.954;5.932;2023-02-03T17:15:27;27.30;;;6.82;;
53652;SDS011;39553;52.954;5.932;2023-02-03T17:17:53;22.42;;;5.40;;
53652;SDS011;39553;52.954;5.932;2023-02-03T17:20:19;38.95;;;7.60;;
53652;SDS011;39553;52.954;5.932;2023-02-03T17:22:45;18.05;;;5.18;;
53652;SDS011;39553;52.954;5.932;2023-02-03T17:25:11;39.33;;;6.30;;
53652;SDS011;39553;52.954;5.932;2023-02-03T17:27:37;32.72;;;5.50;;
53652;SDS011;39553;52.954;5.932;2023-02-03T17:30:03;38.92;;;7.88;;
53652;SDS011;39553;52.954;5.932;2023-02-03T17:32:29;32.97;;;6.32;;
53652;SDS011;39553;52.954;5.932;2023-02-03T17:34:55;26.58;;;6.47;;
53652;SDS011;39553;52.954;5.932;2023-02-03T17:37:20;42.47;;;6.55;;
53652;SDS011;39553;52.954;5.932;2023-02-03T17:39:46;31.25;;;7.00;;
53652;SDS011;39553;52.954;5.932;2023-02-03T17:42:12;37.58;;;6.68;;
53652;SDS011;39553;52.954;5.932;2023-02-03T17:44:37;38.00;;;6.88;;
53652;SDS011;39553;52.954;5.932;2023-02-03T17:47:04;31.00;;;5.85;;
53652;SDS011;39553;52.954;5.932;2023-02-03T17:49:30;26.25;;;7.18;;